»·PEaware :: N4975G KBZN-KHLN

N4975G :: KBZN-KHLN

FLIGHT INFORMATION

Flight Status: Arrived
Operator: Privately registered:
United States
More flights under this callsign
Pilot: Chris D. (31343)
Aircraft: CESSNA 172 SKYHAWK
(C172)
More flights by this aircraft type
Origin: KBZN Gallatin
United States
Destination: KHLN Helena Regl
United States
More flights between these airports :: More routes between these airports
Route: DIRECT
File this flight plan on PilotEdge
Remarks:
Altitude:
(Current/Filed)
8,500ft
Speed:
(Current/Filed)
100kts
Departed: 25-Sep-20 05:18 PM
Arrived: 25-Sep-20 05:56 PM
Distance/Time
Traveled:
60nm/0:38
Distance/Time
To Go:
Arrived

Flight Plot

Page will automatically refresh every two minutes.

Flight plan parsing failed; only flown route is shown


Map Options




Map Legend


Flown Route
Filed Route
Departure Airport
Arrival Airport
Navaid (VOR, NDB)
Fix

Horizontal Profiles

Position Reports

Time Latitude Longitude Heading Altitude Ground
Speed
25-Sep-20 16:53 45.774850 -111.153845 65 4455ft 0kts
25-Sep-20 16:54 45.774850 -111.153845 65 4455ft 0kts
25-Sep-20 16:55 45.774850 -111.153845 65 4455ft 0kts
25-Sep-20 16:57 45.774850 -111.153845 65 4455ft 0kts
25-Sep-20 16:58 45.774850 -111.153844 65 4455ft 0kts
25-Sep-20 16:59 45.774850 -111.153844 65 4455ft 0kts
25-Sep-20 17:00 45.774850 -111.153844 65 4455ft 0kts
25-Sep-20 17:01 45.774850 -111.153845 65 4455ft 0kts
25-Sep-20 17:02 45.774850 -111.153845 65 4455ft 0kts
25-Sep-20 17:03 45.774850 -111.153845 65 4455ft 0kts
25-Sep-20 17:04 45.774850 -111.153845 65 4455ft 0kts
25-Sep-20 17:05 45.774850 -111.153845 65 4455ft 0kts
25-Sep-20 17:06 45.774281 -111.152921 135 4457ft 0kts
25-Sep-20 17:07 45.774281 -111.152921 135 4457ft 0kts
25-Sep-20 17:08 45.774281 -111.152921 135 4457ft 0kts
25-Sep-20 17:09 45.774281 -111.152921 135 4457ft 0kts
25-Sep-20 17:10 45.774281 -111.152921 135 4457ft 0kts
25-Sep-20 17:11 45.773827 -111.151913 126 4459ft 14kts
25-Sep-20 17:12 45.771739 -111.147801 135 4462ft 15kts
25-Sep-20 17:13 45.769428 -111.144609 129 4464ft 3kts
25-Sep-20 17:13 45.769593 -111.143373 43 4464ft 0kts
25-Sep-20 17:14 45.769832 -111.143041 42 4464ft 0kts
25-Sep-20 17:16 45.769832 -111.143041 42 4464ft 0kts
25-Sep-20 17:16 45.769832 -111.143041 42 4464ft 0kts
25-Sep-20 17:17 45.774218 -111.147188 313 4462ft 71kts
25-Sep-20 17:19 45.789774 -111.173668 311 5141ft 66kts
25-Sep-20 17:19 45.804450 -111.184748 332 5501ft 75kts
25-Sep-20 17:20 45.823484 -111.201862 322 5943ft 90kts
25-Sep-20 17:21 45.846704 -111.224089 325 6327ft 104kts
25-Sep-20 17:22 45.871425 -111.247484 326 6730ft 107kts
25-Sep-20 17:23 45.895157 -111.270024 326 7322ft 92kts
25-Sep-20 17:24 45.915780 -111.289597 326 7836ft 93kts
25-Sep-20 17:25 45.938674 -111.311389 326 8227ft 101kts
25-Sep-20 17:26 45.962960 -111.334546 326 8508ft 114kts
25-Sep-20 17:27 45.990817 -111.361115 326 8514ft 123kts
25-Sep-20 17:28 46.019584 -111.388567 326 8531ft 122kts
25-Sep-20 17:29 46.045085 -111.412801 326 9038ft 102kts
25-Sep-20 17:30 46.067719 -111.434540 325 9539ft 93kts
25-Sep-20 17:31 46.088206 -111.454762 325 10035ft 84kts
25-Sep-20 17:32 46.111192 -111.477339 325 10120ft 105kts
25-Sep-20 17:33 46.134781 -111.500364 325 10221ft 100kts
25-Sep-20 17:34 46.157875 -111.522708 325 10323ft 99kts
25-Sep-20 17:35 46.180809 -111.544789 325 10423ft 98kts
25-Sep-20 17:36 46.203669 -111.566645 325 10511ft 100kts
25-Sep-20 17:37 46.227774 -111.589674 325 10513ft 106kts
25-Sep-20 17:38 46.252475 -111.613279 325 10512ft 107kts
25-Sep-20 17:39 46.277398 -111.637093 325 10513ft 107kts
25-Sep-20 17:40 46.302425 -111.660955 325 10510ft 107kts
25-Sep-20 17:41 46.327424 -111.684759 325 10516ft 108kts
25-Sep-20 17:42 46.352683 -111.708703 325 10511ft 108kts
25-Sep-20 17:43 46.377602 -111.732336 325 10513ft 107kts
25-Sep-20 17:44 46.401934 -111.755285 325 10272ft 108kts
25-Sep-20 17:45 46.428158 -111.780961 325 9655ft 117kts
25-Sep-20 17:46 46.455611 -111.807869 325 8953ft 119kts
25-Sep-20 17:47 46.482540 -111.834206 325 7998ft 111kts
25-Sep-20 17:48 46.511175 -111.841613 16 6699ft 108kts
25-Sep-20 17:49 46.538354 -111.830086 16 5702ft 98kts
25-Sep-20 17:50 46.563794 -111.820280 7 5093ft 93kts
25-Sep-20 17:51 46.581991 -111.837816 292 5303ft 96kts
25-Sep-20 17:52 46.589558 -111.874996 274 5276ft 104kts
25-Sep-20 17:53 46.595826 -111.917803 284 4622ft 105kts
25-Sep-20 17:54 46.601354 -111.952830 281 4040ft 79kts
25-Sep-20 17:55 46.605115 -111.976749 289 3854ft 32kts
25-Sep-20 17:56 46.605411 -111.984858 188 3856ft 10kts
25-Sep-20 17:57 46.603988 -111.983185 135 3860ft 11kts
25-Sep-20 17:58 46.603254 -111.986977 180 3860ft 8kts
25-Sep-20 17:59 46.602759 -111.987264 268 3860ft 0kts
25-Sep-20 18:00 46.602759 -111.987264 268 3860ft 0kts
25-Sep-20 18:01 46.602759 -111.987264 268 3860ft 0kts
25-Sep-20 18:02 46.602759 -111.987264 268 3860ft 0kts
25-Sep-20 18:03 46.602759 -111.987264 268 3860ft 0kts
25-Sep-20 18:04 46.602759 -111.987264 268 3860ft 0kts
25-Sep-20 18:05 46.602759 -111.987264 268 3860ft 0kts
25-Sep-20 18:06 46.602759 -111.987264 268 3860ft 0kts
25-Sep-20 18:07 46.602759 -111.987264 268 3860ft 0kts

Navigation Log

Ident Type
Flight plan parsing failed, navigation log unavailable